createdAt,value
2023-03-17T00:01:58.792Z,54.20
2023-03-17T00:04:27.315Z,53.70
2023-03-17T00:06:55.094Z,53.50
2023-03-17T00:09:22.603Z,53.80
2023-03-17T00:11:50.122Z,53.50
2023-03-17T00:14:18.858Z,53.60
2023-03-17T00:16:49.855Z,53.30
2023-03-17T00:19:20.085Z,53.50
2023-03-17T00:21:47.980Z,53.50
2023-03-17T00:24:15.886Z,53.60
2023-03-17T00:26:43.617Z,53.30
2023-03-17T00:29:10.972Z,53.10
2023-03-17T00:31:39.210Z,53.10
2023-03-17T00:34:07.970Z,52.90
2023-03-17T00:36:35.642Z,53.10
2023-03-17T00:39:04.102Z,53.10
2023-03-17T00:41:31.347Z,53.20
2023-03-17T00:43:59.743Z,53.20
2023-03-17T00:46:35.438Z,53.10
2023-03-17T00:49:10.593Z,52.90
2023-03-17T00:51:40.727Z,52.90
2023-03-17T00:54:10.607Z,53.00
2023-03-17T00:56:38.590Z,53.20
2023-03-17T00:59:13.470Z,53.10
2023-03-17T01:01:40.693Z,53.00
2023-03-17T01:04:10.750Z,52.90
2023-03-17T01:06:38.043Z,53.00
2023-03-17T01:09:05.411Z,53.00
2023-03-17T01:11:32.792Z,53.20
2023-03-17T01:14:00.098Z,53.20
2023-03-17T01:16:29.936Z,53.10
2023-03-17T01:18:57.198Z,53.20
2023-03-17T01:21:24.563Z,53.20
2023-03-17T01:23:51.756Z,53.30
2023-03-17T01:26:19.120Z,52.80
2023-03-17T01:28:46.311Z,52.90
2023-03-17T01:31:13.644Z,53.10
2023-03-17T01:33:41.470Z,53.20
2023-03-17T01:36:09.844Z,52.90
2023-03-17T01:38:37.673Z,52.90
2023-03-17T01:41:05.444Z,52.90
2023-03-17T01:43:32.730Z,53.10
2023-03-17T01:46:21.928Z,53.10
2023-03-17T01:49:30.303Z,52.90
2023-03-17T01:52:18.266Z,53.00
2023-03-17T01:54:52.401Z,53.30
2023-03-17T01:57:31.918Z,53.30
2023-03-17T02:00:09.700Z,53.30
2023-03-17T02:02:45.497Z,53.60
2023-03-17T02:05:25.995Z,53.50
2023-03-17T02:07:54.444Z,53.50
2023-03-17T02:10:28.726Z,53.50
2023-03-17T02:13:00.393Z,53.60
2023-03-17T02:15:46.714Z,53.50
2023-03-17T02:18:14.401Z,53.70
2023-03-17T02:20:41.455Z,53.50
2023-03-17T02:23:10.736Z,53.50
2023-03-17T02:25:40.579Z,53.50
2023-03-17T02:28:11.087Z,53.50
2023-03-17T02:30:38.298Z,53.40
2023-03-17T02:33:06.105Z,53.30
2023-03-17T02:35:33.369Z,53.10
2023-03-17T02:38:01.166Z,53.10
2023-03-17T02:40:30.178Z,52.90
2023-03-17T02:42:57.543Z,52.90
2023-03-17T02:45:28.917Z,52.90
2023-03-17T02:47:57.243Z,52.70
2023-03-17T02:50:26.229Z,52.80
2023-03-17T02:52:53.498Z,52.80
2023-03-17T02:55:23.675Z,52.90
2023-03-17T02:57:51.883Z,53.10
2023-03-17T03:00:19.642Z,53.30
2023-03-17T03:02:47.031Z,53.20
2023-03-17T03:05:14.287Z,53.40
2023-03-17T03:07:41.543Z,53.60
2023-03-17T03:10:09.897Z,53.60
2023-03-17T03:12:37.306Z,53.40
2023-03-17T03:15:05.281Z,53.40
2023-03-17T03:17:32.703Z,53.20
2023-03-17T03:20:00.084Z,53.20
2023-03-17T03:22:27.461Z,53.40
2023-03-17T03:24:54.628Z,53.40
2023-03-17T03:27:22.228Z,53.30
2023-03-17T03:29:49.425Z,53.20
2023-03-17T03:32:17.116Z,53.00
2023-03-17T03:34:44.381Z,52.90
2023-03-17T03:37:11.671Z,52.70
2023-03-17T03:39:39.160Z,52.80
2023-03-17T03:42:07.097Z,52.80
2023-03-17T03:44:34.306Z,52.90
2023-03-17T03:47:01.806Z,52.60
2023-03-17T03:49:29.271Z,52.50
2023-03-17T03:51:56.895Z,52.10
2023-03-17T03:54:26.205Z,51.80
2023-03-17T03:56:53.422Z,52.00
2023-03-17T03:59:21.003Z,52.00
2023-03-17T04:01:48.243Z,51.40
2023-03-17T04:04:16.322Z,51.50
2023-03-17T04:06:43.587Z,51.50
2023-03-17T04:09:13.613Z,51.50
2023-03-17T04:11:41.822Z,51.50
2023-03-17T04:14:09.048Z,51.60
2023-03-17T04:16:36.528Z,51.70
2023-03-17T04:19:03.973Z,51.70
2023-03-17T04:21:31.207Z,51.60
2023-03-17T04:23:58.768Z,51.30
2023-03-17T04:26:26.045Z,51.40
2023-03-17T04:28:53.336Z,51.00
2023-03-17T04:31:21.173Z,51.00
2023-03-17T04:33:48.893Z,51.10
2023-03-17T04:36:20.620Z,51.30
2023-03-17T04:38:48.004Z,51.10
2023-03-17T04:41:15.386Z,51.00
2023-03-17T04:43:42.613Z,50.90
2023-03-17T04:46:10.037Z,50.60
2023-03-17T04:48:37.295Z,50.00
2023-03-17T04:51:04.812Z,49.90
2023-03-17T04:53:32.612Z,50.00
2023-03-17T04:55:59.799Z,50.00
2023-03-17T04:58:30.913Z,50.10
2023-03-17T05:01:02.512Z,49.90
2023-03-17T05:03:30.310Z,49.60
2023-03-17T05:06:00.990Z,49.70
2023-03-17T05:08:31.379Z,49.70
2023-03-17T05:10:58.795Z,49.70
2023-03-17T05:13:26.351Z,49.60
2023-03-17T05:15:55.291Z,49.60
2023-03-17T05:18:25.939Z,49.40
2023-03-17T05:20:53.320Z,49.50
2023-03-17T05:23:20.846Z,49.40
2023-03-17T05:25:48.454Z,49.50
2023-03-17T05:28:15.877Z,49.40
2023-03-17T05:30:43.190Z,49.30
2023-03-17T05:33:10.566Z,49.20
2023-03-17T05:35:38.100Z,48.70
2023-03-17T05:38:05.325Z,48.30
2023-03-17T05:40:32.804Z,48.20
2023-03-17T05:43:03.524Z,47.90
2023-03-17T05:45:30.824Z,47.50
2023-03-17T05:47:58.122Z,47.60
2023-03-17T05:50:26.009Z,46.80
2023-03-17T05:52:53.560Z,45.80
2023-03-17T05:55:20.979Z,46.00
2023-03-17T05:57:51.497Z,45.50
2023-03-17T06:00:23.153Z,45.40
2023-03-17T06:02:50.542Z,45.10
2023-03-17T06:05:17.905Z,44.70
2023-03-17T06:07:53.954Z,44.10
2023-03-17T06:10:24.221Z,43.80
2023-03-17T06:12:51.552Z,43.60
2023-03-17T06:15:19.240Z,43.80
2023-03-17T06:17:46.667Z,43.30
2023-03-17T06:20:14.527Z,43.10
2023-03-17T06:23:00.309Z,42.70
2023-03-17T06:25:30.620Z,42.00
2023-03-17T06:27:58.214Z,42.00
2023-03-17T06:30:25.534Z,41.80
2023-03-17T06:32:52.854Z,40.80
2023-03-17T06:35:23.082Z,41.20
2023-03-17T06:37:50.308Z,40.80
2023-03-17T06:40:18.018Z,40.90
2023-03-17T06:42:45.692Z,40.70
2023-03-17T06:45:13.314Z,39.40
2023-03-17T06:47:44.862Z,40.10
2023-03-17T06:50:22.596Z,39.50
2023-03-17T06:52:49.857Z,39.00
2023-03-17T06:55:18.023Z,38.80
2023-03-17T06:57:45.341Z,39.20
2023-03-17T07:00:14.239Z,38.80
2023-03-17T07:02:42.211Z,38.50
2023-03-17T07:05:09.906Z,38.50
2023-03-17T07:07:37.092Z,37.80
2023-03-17T07:10:05.738Z,38.20
2023-03-17T07:12:33.330Z,37.80
2023-03-17T07:15:01.412Z,37.80
2023-03-17T07:17:28.956Z,36.90
2023-03-17T07:19:56.627Z,37.10
2023-03-17T07:22:27.283Z,37.30
2023-03-17T07:24:54.582Z,37.80
2023-03-17T07:27:25.253Z,36.90
2023-03-17T07:29:53.138Z,37.20
2023-03-17T07:32:20.425Z,36.40
2023-03-17T07:34:47.668Z,37.00
2023-03-17T07:37:15.328Z,37.10
2023-03-17T07:39:42.613Z,36.40
2023-03-17T07:42:12.116Z,36.90
2023-03-17T07:44:41.561Z,36.90
2023-03-17T07:47:10.209Z,36.80
2023-03-17T07:49:41.567Z,36.20
2023-03-17T07:52:10.407Z,36.30
2023-03-17T07:54:37.771Z,35.60
2023-03-17T07:57:05.899Z,36.10
2023-03-17T07:59:33.514Z,35.00
2023-03-17T08:02:01.466Z,35.80
2023-03-17T08:04:29.241Z,36.20
2023-03-17T08:06:57.588Z,35.30
2023-03-17T08:09:25.701Z,35.80
2023-03-17T08:11:52.984Z,35.80
2023-03-17T08:14:20.507Z,35.60
2023-03-17T08:16:48.231Z,35.10
2023-03-17T08:19:16.430Z,34.80
2023-03-17T08:21:43.717Z,35.00
2023-03-17T08:24:11.970Z,34.40
2023-03-17T08:26:39.208Z,34.50
2023-03-17T08:29:08.219Z,34.50
2023-03-17T08:31:46.557Z,34.80
2023-03-17T08:34:14.113Z,35.00
2023-03-17T08:36:41.499Z,34.70
2023-03-17T08:39:10.540Z,33.70
2023-03-17T08:41:43.715Z,33.50
2023-03-17T08:44:17.285Z,33.40
2023-03-17T08:46:44.604Z,33.80
2023-03-17T08:49:12.681Z,34.00
2023-03-17T08:51:40.222Z,34.80
2023-03-17T08:54:07.817Z,34.60
2023-03-17T08:56:35.248Z,33.90
2023-03-17T08:59:06.878Z,33.60
2023-03-17T09:01:38.251Z,33.30
2023-03-17T09:04:05.759Z,33.50
2023-03-17T09:06:48.906Z,33.20
2023-03-17T09:09:23.631Z,33.50
2023-03-17T09:11:50.850Z,33.40
2023-03-17T09:14:21.533Z,33.40
2023-03-17T09:16:49.661Z,32.80
2023-03-17T09:19:20.391Z,33.10
2023-03-17T09:21:47.941Z,33.20
2023-03-17T09:24:15.310Z,33.20
2023-03-17T09:26:42.504Z,32.80
2023-03-17T09:29:12.678Z,33.10
2023-03-17T09:31:41.636Z,33.40
2023-03-17T09:34:09.829Z,32.60
2023-03-17T09:36:37.579Z,33.10
2023-03-17T09:39:04.827Z,32.90
2023-03-17T09:42:08.223Z,32.50
2023-03-17T09:45:09.551Z,33.10
2023-03-17T09:48:24.485Z,32.30
2023-03-17T09:51:11.715Z,31.50
2023-03-17T09:54:28.270Z,31.80
2023-03-17T09:57:04.463Z,31.00
2023-03-17T09:59:41.028Z,31.50
2023-03-17T10:02:30.892Z,31.90
2023-03-17T10:04:58.495Z,31.40
2023-03-17T10:07:44.772Z,30.90
2023-03-17T10:10:37.433Z,31.70
2023-03-17T10:13:36.966Z,30.40
2023-03-17T10:16:12.343Z,30.20
2023-03-17T10:18:49.677Z,30.70
2023-03-17T10:21:21.638Z,30.80
2023-03-17T10:23:49.211Z,30.30
2023-03-17T10:26:40.620Z,30.50
2023-03-17T10:29:34.240Z,30.50
2023-03-17T10:32:13.221Z,30.30
2023-03-17T10:34:41.632Z,29.60
2023-03-17T10:37:18.309Z,29.70
2023-03-17T10:39:51.435Z,29.10
2023-03-17T10:42:30.017Z,29.10
2023-03-17T10:45:17.621Z,28.80
2023-03-17T10:47:47.915Z,28.80
2023-03-17T10:50:25.319Z,28.80
2023-03-17T10:53:28.345Z,28.20
2023-03-17T10:56:08.460Z,28.30
2023-03-17T10:58:49.155Z,28.30
2023-03-17T11:01:30.370Z,28.10
2023-03-17T11:03:58.032Z,28.20
2023-03-17T11:06:38.238Z,27.90
2023-03-17T11:09:11.059Z,27.00
2023-03-17T11:11:46.996Z,28.00
2023-03-17T11:14:19.070Z,28.20
2023-03-17T11:16:53.872Z,28.50
2023-03-17T11:19:31.864Z,29.00
2023-03-17T11:22:21.128Z,28.90
2023-03-17T11:25:10.062Z,28.60
2023-03-17T11:27:54.163Z,27.20
2023-03-17T11:30:33.988Z,26.50
2023-03-17T11:33:42.493Z,27.40
2023-03-17T11:36:37.478Z,27.90
2023-03-17T11:39:34.357Z,28.40
2023-03-17T11:42:23.145Z,29.10
2023-03-17T11:44:56.280Z,28.90
2023-03-17T11:47:39.369Z,29.10
2023-03-17T11:50:34.212Z,29.00
2023-03-17T11:53:30.396Z,29.20
2023-03-17T11:56:19.053Z,28.90
2023-03-17T11:58:50.079Z,29.20
2023-03-17T12:01:27.257Z,28.60
2023-03-17T12:04:23.321Z,28.80
2023-03-17T12:06:56.072Z,29.30
2023-03-17T12:10:09.969Z,29.70
2023-03-17T12:13:02.611Z,30.10
2023-03-17T12:15:54.052Z,29.30
2023-03-17T12:18:43.040Z,29.60
2023-03-17T12:21:39.928Z,29.10
2023-03-17T12:24:35.644Z,29.10
2023-03-17T12:27:25.985Z,28.60
2023-03-17T12:30:08.092Z,28.60
2023-03-17T12:32:42.897Z,28.80
2023-03-17T12:35:29.260Z,28.50
2023-03-17T12:37:58.335Z,28.50
2023-03-17T12:40:48.168Z,28.80
2023-03-17T12:43:35.721Z,28.30
2023-03-17T12:46:28.943Z,27.60
2023-03-17T12:49:11.335Z,26.80
2023-03-17T12:51:59.070Z,27.20
2023-03-17T12:54:36.999Z,27.10
2023-03-17T12:57:25.206Z,26.70
2023-03-17T13:00:05.666Z,27.20
2023-03-17T13:02:37.330Z,26.80
2023-03-17T13:05:32.641Z,26.90
2023-03-17T13:08:11.005Z,27.30
2023-03-17T13:10:40.937Z,27.20
2023-03-17T13:13:13.216Z,27.30
2023-03-17T13:15:40.517Z,26.90
2023-03-17T13:18:16.899Z,26.40
2023-03-17T13:21:13.640Z,26.60
2023-03-17T13:24:15.615Z,27.20
2023-03-17T13:27:00.847Z,27.20
2023-03-17T13:29:33.803Z,27.40
2023-03-17T13:32:16.906Z,27.60
2023-03-17T13:34:56.066Z,27.40
2023-03-17T13:37:47.835Z,27.40
2023-03-17T13:40:23.606Z,27.30
2023-03-17T13:43:19.938Z,27.30
2023-03-17T13:45:50.040Z,26.80
2023-03-17T13:48:38.153Z,27.50
2023-03-17T13:51:08.840Z,27.30
2023-03-17T13:53:59.021Z,27.20
2023-03-17T13:56:42.559Z,26.50
2023-03-17T13:59:17.413Z,26.50
2023-03-17T14:02:02.096Z,26.30
2023-03-17T14:04:45.149Z,26.60
2023-03-17T14:07:16.802Z,26.80
2023-03-17T14:09:44.063Z,26.80
2023-03-17T14:12:25.983Z,26.90
2023-03-17T14:15:08.261Z,26.90
2023-03-17T14:18:03.251Z,26.90
2023-03-17T14:20:30.668Z,27.10
2023-03-17T14:23:01.647Z,26.90
2023-03-17T14:25:38.973Z,27.20
2023-03-17T14:28:10.759Z,27.40
2023-03-17T14:30:39.818Z,27.40
2023-03-17T14:33:26.635Z,27.40
2023-03-17T14:35:57.152Z,27.00
2023-03-17T14:38:30.417Z,27.10
2023-03-17T14:41:13.767Z,26.90
2023-03-17T14:43:52.796Z,27.00
2023-03-17T14:46:42.083Z,27.30
2023-03-17T14:49:19.148Z,26.70
2023-03-17T14:51:59.153Z,26.90
2023-03-17T14:54:33.467Z,27.50
2023-03-17T14:57:07.865Z,26.30
2023-03-17T14:59:56.410Z,27.70
2023-03-17T15:02:35.752Z,27.20
2023-03-17T15:05:40.453Z,27.10
2023-03-17T15:08:46.663Z,27.60
2023-03-17T15:11:43.442Z,27.50
2023-03-17T15:14:37.220Z,27.10
2023-03-17T15:17:27.258Z,27.20
2023-03-17T15:19:57.852Z,26.40
2023-03-17T15:22:50.033Z,26.40
2023-03-17T15:25:32.896Z,26.70
2023-03-17T15:28:00.311Z,27.50
2023-03-17T15:30:44.388Z,27.50
2023-03-17T15:33:21.976Z,27.50
2023-03-17T15:35:53.365Z,27.80
2023-03-17T15:38:21.688Z,27.90
2023-03-17T15:40:49.251Z,27.80
2023-03-17T15:43:17.626Z,27.80
2023-03-17T15:45:45.315Z,28.20
2023-03-17T15:48:35.214Z,28.40
2023-03-17T15:51:05.739Z,28.60
2023-03-17T15:53:32.883Z,28.60
2023-03-17T15:56:00.411Z,28.50
2023-03-17T15:58:27.579Z,28.50
2023-03-17T16:01:01.281Z,28.50
2023-03-17T16:03:33.384Z,28.50
2023-03-17T16:06:04.580Z,28.50
2023-03-17T16:08:31.928Z,28.50
2023-03-17T16:11:02.019Z,28.60
2023-03-17T16:13:30.156Z,28.70
2023-03-17T16:16:05.724Z,28.70
2023-03-17T16:18:42.373Z,28.90
2023-03-17T16:21:12.939Z,28.70
2023-03-17T16:23:40.112Z,28.60
2023-03-17T16:26:15.631Z,28.70
2023-03-17T16:28:46.033Z,28.80
2023-03-17T16:31:34.570Z,28.90
2023-03-17T16:34:01.982Z,28.80
2023-03-17T16:36:32.157Z,28.90
2023-03-17T16:39:00.061Z,29.20
2023-03-17T16:41:28.325Z,29.30
2023-03-17T16:44:00.654Z,29.50
2023-03-17T16:46:34.851Z,29.70
2023-03-17T16:49:04.194Z,29.80
2023-03-17T16:51:31.568Z,30.00
2023-03-17T16:54:01.203Z,30.20
2023-03-17T16:56:28.741Z,30.20
2023-03-17T16:58:55.937Z,30.30
2023-03-17T17:01:31.302Z,30.20
2023-03-17T17:03:58.607Z,30.30
2023-03-17T17:06:26.056Z,30.60
2023-03-17T17:08:53.373Z,30.50
2023-03-17T17:11:20.849Z,30.60
2023-03-17T17:13:48.613Z,30.70
2023-03-17T17:16:36.698Z,30.80
2023-03-17T17:19:04.389Z,31.00
2023-03-17T17:21:33.013Z,31.10
2023-03-17T17:24:00.448Z,31.20
2023-03-17T17:26:27.625Z,31.30
2023-03-17T17:28:54.869Z,31.30
2023-03-17T17:31:22.500Z,31.50
2023-03-17T17:33:49.615Z,31.40
2023-03-17T17:36:17.202Z,31.50
2023-03-17T17:38:44.517Z,31.40
2023-03-17T17:41:12.034Z,31.40
2023-03-17T17:43:39.569Z,31.60
2023-03-17T17:46:18.128Z,31.80
2023-03-17T17:48:45.731Z,31.80
2023-03-17T17:51:12.943Z,31.80
2023-03-17T17:53:40.399Z,31.80
2023-03-17T17:56:10.771Z,32.30
2023-03-17T17:58:37.946Z,32.00
2023-03-17T18:01:05.622Z,31.90
2023-03-17T18:03:33.255Z,32.30
2023-03-17T18:06:01.129Z,32.50
2023-03-17T18:08:28.411Z,33.40
2023-03-17T18:10:56.663Z,33.10
2023-03-17T18:13:24.047Z,33.30
2023-03-17T18:15:51.914Z,33.30
2023-03-17T18:18:19.086Z,33.30
2023-03-17T18:20:46.248Z,33.40
2023-03-17T18:23:13.431Z,33.70
2023-03-17T18:25:41.155Z,33.60
2023-03-17T18:28:08.280Z,33.70
2023-03-17T18:30:35.753Z,33.40
2023-03-17T18:33:10.193Z,33.60
2023-03-17T18:35:37.382Z,33.40
2023-03-17T18:38:04.650Z,33.40
2023-03-17T18:40:33.105Z,33.50
2023-03-17T18:43:00.758Z,33.50
2023-03-17T18:45:28.026Z,33.80
2023-03-17T18:47:55.201Z,34.00
2023-03-17T18:50:22.437Z,34.10
2023-03-17T18:52:49.636Z,34.20
2023-03-17T18:55:17.177Z,34.20
2023-03-17T18:57:45.030Z,34.70
2023-03-17T19:00:14.087Z,34.60
2023-03-17T19:02:41.720Z,34.80
2023-03-17T19:05:09.610Z,35.00
2023-03-17T19:07:40.140Z,35.00
2023-03-17T19:10:12.056Z,35.20
2023-03-17T19:12:39.741Z,35.10
2023-03-17T19:15:10.356Z,35.20
2023-03-17T19:17:39.163Z,35.50
2023-03-17T19:20:08.688Z,35.60
2023-03-17T19:22:38.615Z,36.00
2023-03-17T19:25:06.362Z,36.00
2023-03-17T19:27:35.640Z,36.10
2023-03-17T19:30:04.622Z,36.20
2023-03-17T19:32:31.785Z,36.20
2023-03-17T19:34:58.973Z,36.60
2023-03-17T19:37:26.217Z,36.60
2023-03-17T19:39:53.493Z,36.60
2023-03-17T19:42:21.151Z,36.50
2023-03-17T19:44:48.316Z,36.70
2023-03-17T19:47:21.885Z,38.00
2023-03-17T19:49:49.065Z,37.40
2023-03-17T19:52:16.246Z,37.20
2023-03-17T19:54:45.862Z,37.50
2023-03-17T19:57:13.673Z,37.30
2023-03-17T19:59:43.205Z,37.60
2023-03-17T20:02:14.198Z,37.40
2023-03-17T20:04:41.495Z,37.20
2023-03-17T20:07:11.753Z,37.30
2023-03-17T20:09:42.211Z,37.40
2023-03-17T20:12:09.404Z,37.30
2023-03-17T20:14:36.798Z,37.20
2023-03-17T20:17:04.015Z,37.10
2023-03-17T20:19:31.649Z,37.30
2023-03-17T20:21:58.832Z,37.10
2023-03-17T20:24:27.112Z,37.30
2023-03-17T20:26:56.241Z,37.50
2023-03-17T20:29:24.104Z,37.70
2023-03-17T20:31:51.452Z,38.20
2023-03-17T20:34:18.613Z,37.80
2023-03-17T20:36:46.094Z,38.40
2023-03-17T20:39:19.692Z,38.00
2023-03-17T20:41:48.479Z,38.00
2023-03-17T20:44:18.900Z,38.00
2023-03-17T20:46:46.654Z,38.20
2023-03-17T20:49:13.899Z,38.00
2023-03-17T20:51:47.887Z,37.90
2023-03-17T20:54:23.308Z,38.00
2023-03-17T20:57:01.026Z,37.90
2023-03-17T20:59:28.276Z,37.90
2023-03-17T21:01:56.037Z,37.60
2023-03-17T21:04:23.256Z,37.50
2023-03-17T21:06:50.424Z,37.60
2023-03-17T21:09:17.691Z,37.30
2023-03-17T21:11:44.956Z,37.20
2023-03-17T21:14:13.856Z,37.00
2023-03-17T21:16:47.926Z,37.00
2023-03-17T21:19:16.240Z,37.00
2023-03-17T21:21:43.378Z,37.10
2023-03-17T21:24:25.048Z,37.20
2023-03-17T21:26:52.325Z,36.90
2023-03-17T21:29:19.478Z,37.10
2023-03-17T21:31:49.349Z,36.90
2023-03-17T21:34:25.606Z,37.20
2023-03-17T21:37:12.910Z,37.50
2023-03-17T21:39:52.758Z,37.30
2023-03-17T21:42:20.139Z,37.20
2023-03-17T21:44:48.331Z,37.20
2023-03-17T21:47:16.511Z,37.40
2023-03-17T21:49:43.654Z,37.50
2023-03-17T21:52:10.863Z,37.20
2023-03-17T21:54:38.039Z,37.30
2023-03-17T21:57:05.242Z,37.10
2023-03-17T21:59:34.440Z,37.10
2023-03-17T22:02:01.916Z,37.30
2023-03-17T22:04:29.060Z,37.40
2023-03-17T22:06:56.377Z,37.10
2023-03-17T22:09:23.542Z,37.20
2023-03-17T22:11:50.814Z,37.50
2023-03-17T22:14:20.149Z,37.40
2023-03-17T22:16:48.446Z,37.30
2023-03-17T22:19:16.916Z,37.20
2023-03-17T22:21:44.933Z,37.20
2023-03-17T22:24:12.679Z,37.40
2023-03-17T22:26:39.884Z,37.50
2023-03-17T22:29:07.090Z,37.20
2023-03-17T22:31:35.440Z,37.20
2023-03-17T22:34:02.846Z,37.10
2023-03-17T22:36:30.263Z,37.20
2023-03-17T22:38:58.381Z,37.30
2023-03-17T22:41:28.208Z,37.20
2023-03-17T22:43:55.520Z,37.20
2023-03-17T22:46:22.947Z,37.00
2023-03-17T22:48:50.360Z,37.30
2023-03-17T22:51:23.096Z,37.40
2023-03-17T22:53:50.952Z,37.50
2023-03-17T22:56:18.469Z,37.20
2023-03-17T22:58:45.959Z,37.10
2023-03-17T23:01:15.133Z,37.00
2023-03-17T23:03:43.175Z,37.00
2023-03-17T23:06:11.698Z,36.90
2023-03-17T23:08:39.456Z,37.00
2023-03-17T23:11:10.637Z,36.90
2023-03-17T23:13:38.194Z,37.00
2023-03-17T23:16:06.527Z,37.20
2023-03-17T23:18:34.022Z,37.10
2023-03-17T23:21:01.919Z,37.20
2023-03-17T23:23:29.214Z,37.30
2023-03-17T23:25:56.421Z,37.20
2023-03-17T23:28:24.140Z,37.00
2023-03-17T23:30:52.048Z,37.20
2023-03-17T23:33:22.813Z,37.60
2023-03-17T23:35:51.418Z,37.50
2023-03-17T23:38:22.332Z,37.70
2023-03-17T23:40:49.770Z,37.50
2023-03-17T23:43:18.434Z,37.20
2023-03-17T23:45:45.981Z,37.30
2023-03-17T23:48:32.872Z,37.50
2023-03-17T23:51:01.203Z,37.70
2023-03-17T23:53:29.812Z,37.70
2023-03-17T23:55:56.928Z,37.80
2023-03-17T23:58:25.944Z,37.80
